Time;durP1;ratioP1;P1;durP2;ratioP2;P2;SDS_P1;SDS_P2;PMS_P1;PMS_P2;Temp;Humidity;BMP_temperature;BMP_pressure;BME280_temperature;BME280_humidity;BME280_pressure;Samples;Min_cycle;Max_cycle;Signal;HPM_P1;HPM_P2
2023/04/11 00:00:42;;;;;;;;;;;;;;;;;;2196765;59;2335;-22
2023/04/11 00:03:12;;;;;;;;;;;;;;;;;;2196865;67;1549;-23
2023/04/11 00:05:42;;;;;;;;;;;;;;;;;;2196440;59;2254;-23
2023/04/11 00:08:12;;;;;;;;;;;;;;;;;;2197264;59;1714;-23
2023/04/11 00:10:43;;;;;;;;;;;;;;;;;;2196367;59;2378;-23
2023/04/11 00:13:13;;;;;;;;;;;;;;;;;;2196448;67;1937;-23
2023/04/11 00:15:43;;;;;;;;;;;;;;;;;;2196587;59;2597;-22
2023/04/11 00:18:13;;;;;;;;;;;;;;;;;;2196363;67;2253;-23
2023/04/11 00:20:43;;;;;;;;;;;;;;;;;;2196814;67;1362;-22
2023/04/11 00:23:14;;;;;;;;;;;;;;;;;;2196219;59;2291;-23
2023/04/11 00:25:44;;;;;;;;;;;;;;;;;;2193122;67;1814;-22
2023/04/11 00:28:14;;;;;;;;;;;;;;;;;;2196285;59;2663;-23
2023/04/11 00:30:44;;;;;;;;;;;;;;;;;;2196874;59;2001;-23
2023/04/11 00:33:15;;;;;;;;;;;;;;;;;;2196646;59;2376;-23
2023/04/11 00:35:45;;;;;;;;;;;;;;;;;;2196531;59;1730;-23
2023/04/11 00:38:15;;;;;;;;;;;;;;;;;;2196401;67;2751;-23
2023/04/11 00:40:46;;;;;;;;;;;;;;;;;;2196176;59;1304;-23
2023/04/11 00:43:16;;;;;;;;;;;;;;;;;;2196528;67;2305;-23
2023/04/11 00:45:46;;;;;;;;;;;;;;;;;;2196856;59;2349;-23
2023/04/11 00:48:17;;;;;;;;;;;;;;;;;;2195828;59;2580;-23
2023/04/11 00:50:47;;;;;;;;;;;;;;;;;;2196940;59;2551;-23
2023/04/11 00:53:17;;;;;;;;;;;;;;;;;;2196317;67;2461;-23
2023/04/11 00:55:48;;;;;;;;;;;;;;;;;;2196154;67;1938;-23
2023/04/11 00:58:19;;;;;;;;;;;;;;;;;;2194008;59;2212;-23
2023/04/11 01:00:50;;;;;;;;;;;;;;;;;;2196355;59;2313;-23
2023/04/11 01:03:21;;;;;;;;;;;;;;;;;;2196352;59;2726;-23
2023/04/11 01:05:52;;;;;;;;;;;;;;;;;;2196396;67;1508;-23
2023/04/11 01:08:23;;;;;;;;;;;;;;;;;;2196837;59;2692;-23
2023/04/11 01:10:53;;;;;;;;;;;;;;;;;;2196490;59;2151;-23
2023/04/11 01:13:24;;;;;;;;;;;;;;;;;;2193680;67;2340;-23
2023/04/11 01:15:54;;;;;;;;;;;;;;;;;;2193642;67;2430;-23
2023/04/11 01:18:25;;;;;;;;;;;;;;;;;;2197049;59;2465;-23
2023/04/11 01:20:56;;;;;;;;;;;;;;;;;;2196442;67;2144;-23
2023/04/11 01:23:27;;;;;;;;;;;;;;;;;;2196859;59;2567;-23
2023/04/11 01:25:57;;;;;;;;;;;;;;;;;;2196299;59;2180;-23
2023/04/11 01:28:27;;;;;;;;;;;;;;;;;;2195990;59;2484;-23
2023/04/11 01:30:57;;;;;;;;;;;;;;;;;;2196903;59;2192;-23
2023/04/11 01:33:27;;;;;;;;;;;;;;;;;;2196417;59;2254;-23
2023/04/11 01:35:58;;;;;;;;;;;;;;;;;;2194002;59;1860;-23
2023/04/11 01:38:28;;;;;;;;;;;;;;;;;;2196763;59;2658;-23
2023/04/11 01:40:59;;;;;;;;;;;;;;;;;;2197123;59;1566;-23
2023/04/11 01:43:29;;;;;;;;;;;;;;;;;;2197057;67;4182;-23
2023/04/11 01:45:59;;;;;;;;;;;;;;;;;;2197043;59;2813;-23
2023/04/11 01:48:32;;;;;;;;;;;;;;;;;;2196627;59;2758;-23
2023/04/11 01:51:03;;;;;;;;;;;;;;;;;;2193561;59;2026;-23
2023/04/11 01:53:33;;;;;;;;;;;;;;;;;;2195311;67;2798;-23
2023/04/11 01:56:03;;;;;;;;;;;;;;;;;;2193174;59;2455;-23
2023/04/11 01:58:33;;;;;;;;;;;;;;;;;;2196060;67;1781;-23
2023/04/11 02:01:04;;;;;;;;;;;;;;;;;;2196795;59;2702;-23
2023/04/11 02:03:35;;;;;;;;;;;;;;;;;;2196739;67;1939;-23
2023/04/11 02:06:05;;;;;;;;;;;;;;;;;;2196056;59;2508;-23
2023/04/11 02:08:36;;;;;;;;;;;;;;;;;;2195928;59;2058;-23
2023/04/11 02:11:07;;;;;;;;;;;;;;;;;;2196105;59;2220;-23
2023/04/11 02:13:37;;;;;;;;;;;;;;;;;;2196266;67;2195;-23
2023/04/11 02:16:08;;;;;;;;;;;;;;;;;;2195946;59;3019;-23
2023/04/11 02:18:43;;;;;;;;;;;;;;;;;;2195718;59;2161;-23
2023/04/11 02:21:13;;;;;;;;;;;;;;;;;;2192307;59;2823;-23
2023/04/11 02:23:44;;;;;;;;;;;;;;;;;;2195981;67;2102;-23
2023/04/11 02:26:14;;;;;;;;;;;;;;;;;;2193055;67;2298;-23
2023/04/11 02:28:44;;;;;;;;;;;;;;;;;;2196257;67;2136;-23
2023/04/11 02:31:14;;;;;;;;;;;;;;;;;;2195471;59;2635;-23
2023/04/11 02:33:45;;;;;;;;;;;;;;;;;;2193123;67;1995;-23
2023/04/11 02:36:15;;;;;;;;;;;;;;;;;;2195529;67;2325;-23
2023/04/11 02:38:45;;;;;;;;;;;;;;;;;;2196527;67;1874;-23
2023/04/11 02:41:16;;;;;;;;;;;;;;;;;;2196740;59;2283;-23
2023/04/11 02:43:46;;;;;;;;;;;;;;;;;;2195986;67;2586;-23
2023/04/11 02:46:16;;;;;;;;;;;;;;;;;;2195673;59;2771;-23
2023/04/11 02:48:47;;;;;;;;;;;;;;;;;;2193567;67;1761;-23
2023/04/11 02:51:17;;;;;;;;;;;;;;;;;;2195711;67;2333;-23
2023/04/11 02:53:47;;;;;;;;;;;;;;;;;;2192684;59;1936;-23
2023/04/11 02:56:18;;;;;;;;;;;;;;;;;;2195914;59;2812;-23
2023/04/11 02:58:51;;;;;;;;;;;;;;;;;;2196149;59;1736;-23
2023/04/11 03:01:23;;;;;;;;;;;;;;;;;;2194718;59;2439;-23
2023/04/11 03:03:53;;;;;;;;;;;;;;;;;;2197166;67;1875;-23
2023/04/11 03:06:25;;;;;;;;;;;;;;;;;;2195690;59;2348;-23
2023/04/11 03:08:55;;;;;;;;;;;;;;;;;;2196639;59;2226;-23
2023/04/11 03:11:26;;;;;;;;;;;;;;;;;;2196419;59;2527;-23
2023/04/11 03:13:56;;;;;;;;;;;;;;;;;;2195971;67;2083;-23
2023/04/11 03:16:27;;;;;;;;;;;;;;;;;;2196184;59;2322;-23
2023/04/11 03:18:57;;;;;;;;;;;;;;;;;;2196949;67;1509;-23
2023/04/11 03:21:27;;;;;;;;;;;;;;;;;;2196792;59;2320;-23
2023/04/11 03:23:57;;;;;;;;;;;;;;;;;;2196569;67;1645;-23
2023/04/11 03:26:28;;;;;;;;;;;;;;;;;;2196280;67;2367;-23
2023/04/11 03:28:58;;;;;;;;;;;;;;;;;;2196627;67;2103;-23
2023/04/11 03:31:29;;;;;;;;;;;;;;;;;;2196193;59;2311;-23
2023/04/11 03:33:59;;;;;;;;;;;;;;;;;;2196797;67;1960;-23
2023/04/11 03:36:31;;;;;;;;;;;;;;;;;;2196724;67;1904;-23
2023/04/11 03:39:01;;;;;;;;;;;;;;;;;;2196594;59;2822;-23
2023/04/11 03:41:32;;;;;;;;;;;;;;;;;;2196712;59;1967;-23
2023/04/11 03:44:02;;;;;;;;;;;;;;;;;;2196528;67;2719;-23
2023/04/11 03:46:32;;;;;;;;;;;;;;;;;;2197416;59;2818;-23
2023/04/11 03:49:05;;;;;;;;;;;;;;;;;;2196922;59;2450;-23
2023/04/11 03:51:36;;;;;;;;;;;;;;;;;;2196341;67;1941;-23
2023/04/11 03:54:06;;;;;;;;;;;;;;;;;;2196596;59;2538;-23
2023/04/11 03:56:36;;;;;;;;;;;;;;;;;;2196353;67;1930;-23
2023/04/11 03:59:06;;;;;;;;;;;;;;;;;;2196404;59;2296;-23
2023/04/11 04:01:37;;;;;;;;;;;;;;;;;;2196433;59;1594;-23
2023/04/11 04:04:10;;;;;;;;;;;;;;;;;;2196230;67;2821;-23
2023/04/11 04:06:40;;;;;;;;;;;;;;;;;;2196179;59;1777;-23
2023/04/11 04:09:10;;;;;;;;;;;;;;;;;;2196403;59;2228;-23
2023/04/11 04:11:41;;;;;;;;;;;;;;;;;;2194195;67;1945;-23
2023/04/11 04:14:11;;;;;;;;;;;;;;;;;;2196275;59;2386;-23
2023/04/11 04:16:41;;;;;;;;;;;;;;;;;;2196580;67;1654;-23
2023/04/11 04:19:11;;;;;;;;;;;;;;;;;;2196068;67;2757;-23
2023/04/11 04:21:42;;;;;;;;;;;;;;;;;;2196813;67;1990;-23
2023/04/11 04:24:12;;;;;;;;;;;;;;;;;;2195410;59;2636;-23
2023/04/11 04:26:42;;;;;;;;;;;;;;;;;;2196450;67;1938;-22
2023/04/11 04:29:12;;;;;;;;;;;;;;;;;;2193034;59;2317;-23
2023/04/11 04:31:43;;;;;;;;;;;;;;;;;;2196094;59;2033;-23
2023/04/11 04:34:20;;;;;;;;;;;;;;;;;;2193335;60;2510;-23
2023/04/11 04:36:55;;;;;;;;;;;;;;;;;;2196420;67;2614;-23
2023/04/11 04:39:28;;;;;;;;;;;;;;;;;;2196385;59;2979;-23
2023/04/11 04:41:59;;;;;;;;;;;;;;;;;;2190535;59;2749;-23
2023/04/11 04:44:29;;;;;;;;;;;;;;;;;;2195913;59;2893;-23
2023/04/11 04:46:59;;;;;;;;;;;;;;;;;;2194301;59;2817;-23
2023/04/11 04:49:30;;;;;;;;;;;;;;;;;;2196306;67;2491;-23
2023/04/11 04:52:00;;;;;;;;;;;;;;;;;;2196454;67;1944;-23
2023/04/11 04:54:30;;;;;;;;;;;;;;;;;;2195991;59;2652;-23
2023/04/11 04:57:00;;;;;;;;;;;;;;;;;;2196090;67;2033;-23
2023/04/11 04:59:30;;;;;;;;;;;;;;;;;;2196138;59;2838;-23
2023/04/11 05:02:01;;;;;;;;;;;;;;;;;;2197466;59;1826;-23
2023/04/11 05:04:33;;;;;;;;;;;;;;;;;;2195927;59;2531;-23
2023/04/11 05:07:03;;;;;;;;;;;;;;;;;;2195682;59;2646;-23
2023/04/11 05:09:33;;;;;;;;;;;;;;;;;;2195576;59;2778;-23
2023/04/11 05:12:03;;;;;;;;;;;;;;;;;;2192733;59;2301;-23
2023/04/11 05:14:34;;;;;;;;;;;;;;;;;;2196654;59;2586;-24
2023/04/11 05:17:04;;;;;;;;;;;;;;;;;;2190420;59;1660;-26
2023/04/11 05:19:35;;;;;;;;;;;;;;;;;;2195504;67;2476;-27
2023/04/11 05:22:05;;;;;;;;;;;;;;;;;;2195946;59;1729;-27
2023/04/11 05:24:35;;;;;;;;;;;;;;;;;;2195588;59;2814;-26
2023/04/11 05:27:05;;;;;;;;;;;;;;;;;;2195935;59;2801;-26
2023/04/11 05:29:36;;;;;;;;;;;;;;;;;;2192673;59;2947;-26
2023/04/11 05:32:06;;;;;;;;;;;;;;;;;;2194029;59;3628;-26
2023/04/11 05:34:49;;;;;;;;;;;;;;;;;;2196194;59;1751;-27
2023/04/11 05:37:19;;;;;;;;;;;;;;;;;;2196410;67;3848;-27
2023/04/11 05:39:51;;;;;;;;;;;;;;;;;;2196461;59;3063;-27
2023/04/11 05:42:21;;;;;;;;;;;;;;;;;;2195883;59;2407;-27
2023/04/11 05:44:52;;;;;;;;;;;;;;;;;;2197189;59;2786;-27
2023/04/11 05:47:22;;;;;;;;;;;;;;;;;;2195650;59;2600;-26
2023/04/11 05:49:52;;;;;;;;;;;;;;;;;;2196066;59;1789;-27
2023/04/11 05:52:22;;;;;;;;;;;;;;;;;;2196217;59;2370;-27
2023/04/11 05:54:53;;;;;;;;;;;;;;;;;;2195354;59;2530;-27
2023/04/11 05:57:23;;;;;;;;;;;;;;;;;;2194699;59;3865;-27
2023/04/11 05:59:53;;;;;;;;;;;;;;;;;;2194275;59;2113;-27
2023/04/11 06:02:23;;;;;;;;;;;;;;;;;;2191788;59;3453;-27
2023/04/11 06:04:53;;;;;;;;;;;;;;;;;;2196222;67;1969;-27
2023/04/11 06:07:26;;;;;;;;;;;;;;;;;;2196095;59;2287;-27
2023/04/11 06:09:56;;;;;;;;;;;;;;;;;;2196415;59;2517;-27
2023/04/11 06:12:27;;;;;;;;;;;;;;;;;;2191034;59;2993;-27
2023/04/11 06:14:57;;;;;;;;;;;;;;;;;;2191303;59;3382;-27
2023/04/11 06:17:28;;;;;;;;;;;;;;;;;;2196025;59;2340;-27
2023/04/11 06:19:58;;;;;;;;;;;;;;;;;;2196366;59;1805;-27
2023/04/11 06:22:28;;;;;;;;;;;;;;;;;;2194569;59;2449;-27
2023/04/11 06:24:58;;;;;;;;;;;;;;;;;;2196902;59;2441;-27
2023/04/11 06:27:29;;;;;;;;;;;;;;;;;;2195655;59;2138;-27
2023/04/11 06:30:00;;;;;;;;;;;;;;;;;;2194195;59;1807;-26
2023/04/11 06:32:30;;;;;;;;;;;;;;;;;;2195638;59;2096;-27
2023/04/11 06:35:00;;;;;;;;;;;;;;;;;;2194944;59;1666;-24
2023/04/11 06:37:30;;;;;;;;;;;;;;;;;;2196693;67;2298;-24
2023/04/11 06:40:01;;;;;;;;;;;;;;;;;;2196999;59;2193;-24
2023/04/11 06:42:31;;;;;;;;;;;;;;;;;;2197154;59;1851;-24
2023/04/11 06:45:02;;;;;;;;;;;;;;;;;;2196486;59;2772;-27
2023/04/11 06:47:33;;;;;;;;;;;;;;;;;;2196932;59;2101;-24
2023/04/11 06:50:03;;;;;;;;;;;;;;;;;;2197479;67;1273;-25
2023/04/11 06:52:33;;;;;;;;;;;;;;;;;;2197033;59;2196;-25
2023/04/11 06:55:05;;;;;;;;;;;;;;;;;;2197160;67;1808;-25
2023/04/11 06:57:36;;;;;;;;;;;;;;;;;;2196263;59;2073;-24
2023/04/11 07:00:06;;;;;;;;;;;;;;;;;;2197304;59;1770;-24
2023/04/11 07:02:38;;;;;;;;;;;;;;;;;;2198347;59;2356;-27
2023/04/11 07:05:09;;;;;;;;;;;;;;;;;;2199676;59;2142;-27
2023/04/11 07:07:39;;;;;;;;;;;;;;;;;;2195549;59;2194;-27
2023/04/11 07:10:09;;;;;;;;;;;;;;;;;;2195870;59;2210;-27
2023/04/11 07:12:40;;;;;;;;;;;;;;;;;;2198962;59;2292;-27
2023/04/11 07:15:10;;;;;;;;;;;;;;;;;;2198619;67;3205;-28
2023/04/11 07:17:40;;;;;;;;;;;;;;;;;;2199381;59;3600;-26
2023/04/11 07:20:11;;;;;;;;;;;;;;;;;;2199921;59;1709;-28
2023/04/11 07:22:42;;;;;;;;;;;;;;;;;;2198643;59;2257;-26
2023/04/11 07:25:13;;;;;;;;;;;;;;;;;;2196448;67;1510;-27
2023/04/11 07:27:45;;;;;;;;;;;;;;;;;;2196990;59;2024;-27
2023/04/11 07:30:15;;;;;;;;;;;;;;;;;;2198099;67;1829;-27
2023/04/11 07:32:45;;;;;;;;;;;;;;;;;;2195220;59;2045;-26
2023/04/11 07:35:16;;;;;;;;;;;;;;;;;;2195602;59;1996;-26
2023/04/11 07:37:46;;;;;;;;;;;;;;;;;;2194762;59;2118;-26
2023/04/11 07:40:16;;;;;;;;;;;;;;;;;;2198553;59;1801;-27
2023/04/11 07:42:46;;;;;;;;;;;;;;;;;;2197833;59;2118;-27
2023/04/11 07:45:17;;;;;;;;;;;;;;;;;;2194204;59;2233;-27
2023/04/11 07:47:48;;;;;;;;;;;;;;;;;;2198101;59;2748;-27
2023/04/11 07:50:18;;;;;;;;;;;;;;;;;;2194181;59;1769;-27
2023/04/11 07:52:50;;;;;;;;;;;;;;;;;;2197359;59;2164;-27
2023/04/11 07:55:20;;;;;;;;;;;;;;;;;;2196603;59;1891;-27
2023/04/11 07:57:50;;;;;;;;;;;;;;;;;;2196810;64;2141;-27
2023/04/11 08:00:23;;;;;;;;;;;;;;;;;;2197966;59;1988;-33
2023/04/11 08:02:57;;;;;;;;;;;;;;;;;;2197327;59;2052;-26
2023/04/11 08:05:34;;;;;;;;;;;;;;;;;;2193732;67;1496;-26
2023/04/11 08:08:05;;;;;;;;;;;;;;;;;;2196121;59;2079;-26
2023/04/11 08:10:35;;;;;;;;;;;;;;;;;;2196747;59;1603;-26
2023/04/11 08:13:05;;;;;;;;;;;;;;;;;;2192915;67;1989;-26
2023/04/11 08:15:37;;;;;;;;;;;;;;;;;;2196291;59;2686;-26
2023/04/11 08:18:07;;;;;;;;;;;;;;;;;;2193585;59;2381;-26
2023/04/11 08:20:39;;;;;;;;;;;;;;;;;;2196612;59;2307;-25
2023/04/11 08:23:10;;;;;;;;;;;;;;;;;;2196842;59;2378;-26
2023/04/11 08:25:40;;;;;;;;;;;;;;;;;;2197764;59;2119;-26
2023/04/11 08:28:11;;;;;;;;;;;;;;;;;;2196960;60;1273;-25
2023/04/11 08:30:41;;;;;;;;;;;;;;;;;;2197023;59;2090;-25
2023/04/11 08:33:11;;;;;;;;;;;;;;;;;;2196723;59;1941;-26
2023/04/11 08:35:42;;;;;;;;;;;;;;;;;;2193256;59;2103;-26
2023/04/11 08:38:12;;;;;;;;;;;;;;;;;;2196193;59;2484;-26
2023/04/11 08:40:42;;;;;;;;;;;;;;;;;;2196179;59;2110;-26
2023/04/11 08:43:12;;;;;;;;;;;;;;;;;;2194425;59;2262;-26
2023/04/11 08:45:43;;;;;;;;;;;;;;;;;;2195141;59;2031;-26
2023/04/11 08:48:13;;;;;;;;;;;;;;;;;;2194260;59;2647;-26
2023/04/11 08:50:43;;;;;;;;;;;;;;;;;;2195900;59;2261;-26
2023/04/11 08:53:14;;;;;;;;;;;;;;;;;;2196920;59;2475;-26
2023/04/11 08:55:45;;;;;;;;;;;;;;;;;;2196539;59;2173;-26
2023/04/11 08:58:16;;;;;;;;;;;;;;;;;;2196319;59;1733;-26
2023/04/11 09:00:46;;;;;;;;;;;;;;;;;;2195413;59;2469;-26
2023/04/11 09:03:16;;;;;;;;;;;;;;;;;;2197107;67;1285;-26
2023/04/11 09:05:47;;;;;;;;;;;;;;;;;;2193337;67;2378;-26
2023/04/11 09:08:17;;;;;;;;;;;;;;;;;;2193308;59;1900;-25
2023/04/11 09:10:48;;;;;;;;;;;;;;;;;;2196276;59;2104;-25
2023/04/11 09:13:19;;;;;;;;;;;;;;;;;;2193374;59;1933;-25
2023/04/11 09:16:02;;;;;;;;;;;;;;;;;;2195676;59;2324;-25
2023/04/11 09:18:33;;;;;;;;;;;;;;;;;;2194311;67;2530;-25
2023/04/11 09:21:13;;;;;;;;;;;;;;;;;;2193982;59;2433;-24
2023/04/11 09:23:44;;;;;;;;;;;;;;;;;;2195847;59;2873;-24
2023/04/11 09:26:24;;;;;;;;;;;;;;;;;;2194797;67;2425;-24
2023/04/11 09:28:57;;;;;;;;;;;;;;;;;;2195931;59;2249;-24
2023/04/11 09:31:38;;;;;;;;;;;;;;;;;;2195324;67;2586;-24
2023/04/11 09:34:10;;;;;;;;;;;;;;;;;;2195240;67;1987;-24
2023/04/11 09:36:41;;;;;;;;;;;;;;;;;;2191956;59;1894;-24
2023/04/11 09:39:16;;;;;;;;;;;;;;;;;;2195109;60;2521;-24
2023/04/11 09:41:46;;;;;;;;;;;;;;;;;;2195984;59;1910;-24
2023/04/11 09:44:16;;;;;;;;;;;;;;;;;;2192368;59;2290;-24
2023/04/11 09:46:56;;;;;;;;;;;;;;;;;;2198181;59;1847;-24
2023/04/11 09:49:28;;;;;;;;;;;;;;;;;;2195248;59;2574;-23
2023/04/11 09:51:59;;;;;;;;;;;;;;;;;;2192596;67;1991;-23
2023/04/11 09:54:33;;;;;;;;;;;;;;;;;;2194892;59;2507;-23
2023/04/11 09:57:04;;;;;;;;;;;;;;;;;;2191358;59;1828;-23
2023/04/11 09:59:37;;;;;;;;;;;;;;;;;;2195037;59;2861;-23
2023/04/11 10:02:08;;;;;;;;;;;;;;;;;;2194417;59;2364;-23
2023/04/11 10:04:39;;;;;;;;;;;;;;;;;;2194490;59;2513;-23
2023/04/11 10:07:13;;;;;;;;;;;;;;;;;;2190495;59;1816;-23
2023/04/11 10:09:44;;;;;;;;;;;;;;;;;;2194880;59;2115;-23
2023/04/11 10:12:30;;;;;;;;;;;;;;;;;;2191422;59;2469;-23
2023/04/11 10:15:10;;;;;;;;;;;;;;;;;;2195312;59;2497;-23
2023/04/11 10:17:40;;;;;;;;;;;;;;;;;;2192402;60;2785;-23
2023/04/11 10:20:29;;;;;;;;;;;;;;;;;;2194883;59;2489;-23
2023/04/11 10:23:00;;;;;;;;;;;;;;;;;;2193756;67;1249;-23
2023/04/11 10:25:31;;;;;;;;;;;;;;;;;;2196637;59;2077;-23
2023/04/11 10:28:03;;;;;;;;;;;;;;;;;;2197148;59;1737;-23
2023/04/11 10:30:39;;;;;;;;;;;;;;;;;;2196637;59;2146;-23
2023/04/11 10:33:16;;;;;;;;;;;;;;;;;;2196669;67;1935;-25
2023/04/11 10:35:58;;;;;;;;;;;;;;;;;;2197693;59;2095;-23
2023/04/11 10:38:42;;;;;;;;;;;;;;;;;;2197317;67;1370;-23
2023/04/11 10:41:21;;;;;;;;;;;;;;;;;;2196613;59;2155;-23
2023/04/11 10:44:10;;;;;;;;;;;;;;;;;;2197855;67;1145;-23
2023/04/11 10:46:48;;;;;;;;;;;;;;;;;;2197243;59;2171;-23
2023/04/11 10:49:33;;;;;;;;;;;;;;;;;;2197593;67;2098;-23
2023/04/11 10:52:17;;;;;;;;;;;;;;;;;;2196140;59;2121;-23
2023/04/11 10:54:51;;;;;;;;;;;;;;;;;;2193105;59;2496;-23
2023/04/11 10:57:22;;;;;;;;;;;;;;;;;;2193474;59;1910;-23
2023/04/11 10:59:52;;;;;;;;;;;;;;;;;;2197236;67;1614;-23
2023/04/11 11:02:25;;;;;;;;;;;;;;;;;;2197315;59;1304;-23
2023/04/11 11:04:55;;;;;;;;;;;;;;;;;;2197470;67;1418;-23
2023/04/11 11:07:26;;;;;;;;;;;;;;;;;;2197767;59;1166;-23
2023/04/11 11:09:56;;;;;;;;;;;;;;;;;;2196470;59;1568;-22
2023/04/11 11:12:27;;;;;;;;;;;;;;;;;;2196899;59;1946;-23
2023/04/11 11:14:57;;;;;;;;;;;;;;;;;;2197756;67;1824;-22
2023/04/11 11:17:27;;;;;;;;;;;;;;;;;;2197158;67;1787;-22
2023/04/11 11:19:57;;;;;;;;;;;;;;;;;;2195204;59;2211;-22
2023/04/11 11:22:27;;;;;;;;;;;;;;;;;;2191674;67;1718;-22
2023/04/11 11:25:07;;;;;;;;;;;;;;;;;;2196399;67;1723;-24
2023/04/11 11:27:37;;;;;;;;;;;;;;;;;;2195847;59;2288;-22
2023/04/11 11:30:11;;;;;;;;;;;;;;;;;;2192680;59;2590;-22
2023/04/11 11:32:41;;;;;;;;;;;;;;;;;;2192967;59;2270;-22
2023/04/11 11:35:12;;;;;;;;;;;;;;;;;;2196957;59;1623;-22
2023/04/11 11:37:42;;;;;;;;;;;;;;;;;;2196161;59;2759;-22
2023/04/11 11:40:13;;;;;;;;;;;;;;;;;;2195651;59;2162;-22
2023/04/11 11:42:43;;;;;;;;;;;;;;;;;;2197037;59;2757;-22
2023/04/11 11:45:18;;;;;;;;;;;;;;;;;;2194078;59;2639;-22
2023/04/11 11:47:49;;;;;;;;;;;;;;;;;;2194466;67;1127;-22
2023/04/11 11:50:22;;;;;;;;;;;;;;;;;;2196805;59;2512;-23
2023/04/11 11:52:53;;;;;;;;;;;;;;;;;;2197443;67;1945;-22
2023/04/11 11:55:23;;;;;;;;;;;;;;;;;;2197560;59;2423;-22
2023/04/11 11:57:57;;;;;;;;;;;;;;;;;;2197424;59;1315;-22
2023/04/11 12:00:29;;;;;;;;;;;;;;;;;;2196648;59;2451;-22
2023/04/11 12:03:00;;;;;;;;;;;;;;;;;;2194508;67;2245;-22
2023/04/11 12:05:32;;;;;;;;;;;;;;;;;;2197107;59;2193;-22
2023/04/11 12:08:03;;;;;;;;;;;;;;;;;;2191724;59;2113;-22
2023/04/11 12:10:40;;;;;;;;;;;;;;;;;;2197463;59;2184;-22
2023/04/11 12:13:10;;;;;;;;;;;;;;;;;;2195686;59;2550;-22
2023/04/11 12:15:47;;;;;;;;;;;;;;;;;;2193101;59;2057;-22
2023/04/11 12:18:26;;;;;;;;;;;;;;;;;;2194271;59;2622;-22
2023/04/11 12:20:57;;;;;;;;;;;;;;;;;;2194421;59;2247;-22
2023/04/11 12:23:28;;;;;;;;;;;;;;;;;;2195705;59;2258;-22
2023/04/11 12:25:58;;;;;;;;;;;;;;;;;;2195423;67;1754;-22
2023/04/11 12:28:28;;;;;;;;;;;;;;;;;;2195999;59;2243;-22
2023/04/11 12:30:58;;;;;;;;;;;;;;;;;;2193125;59;1827;-22
2023/04/11 12:33:29;;;;;;;;;;;;;;;;;;2195700;67;1936;-22
2023/04/11 12:35:59;;;;;;;;;;;;;;;;;;2195666;59;1645;-22
2023/04/11 12:38:29;;;;;;;;;;;;;;;;;;2195836;59;1232;-23
2023/04/11 12:40:59;;;;;;;;;;;;;;;;;;2192755;59;1698;-24
2023/04/11 12:43:30;;;;;;;;;;;;;;;;;;2197133;67;1786;-23
2023/04/11 12:46:00;;;;;;;;;;;;;;;;;;2193045;59;1733;-23
2023/04/11 12:48:31;;;;;;;;;;;;;;;;;;2193144;67;1501;-23
2023/04/11 12:51:01;;;;;;;;;;;;;;;;;;2196214;59;1320;-23
2023/04/11 12:53:32;;;;;;;;;;;;;;;;;;2196541;67;1945;-23
2023/04/11 12:56:02;;;;;;;;;;;;;;;;;;2196488;67;1257;-23
2023/04/11 12:58:32;;;;;;;;;;;;;;;;;;2196854;67;1137;-23
2023/04/11 13:01:04;;;;;;;;;;;;;;;;;;2196863;59;1208;-23
2023/04/11 13:03:36;;;;;;;;;;;;;;;;;;2196880;59;1750;-23
2023/04/11 13:06:07;;;;;;;;;;;;;;;;;;2197496;67;1681;-23
2023/04/11 13:08:37;;;;;;;;;;;;;;;;;;2196662;59;1294;-23
2023/04/11 13:11:07;;;;;;;;;;;;;;;;;;2196872;59;1204;-23
2023/04/11 13:13:37;;;;;;;;;;;;;;;;;;2196445;67;1935;-23
2023/04/11 13:16:08;;;;;;;;;;;;;;;;;;2201986;67;1673;-23
2023/04/11 13:18:39;;;;;;;;;;;;;;;;;;2195963;67;1502;-23
2023/04/11 13:21:10;;;;;;;;;;;;;;;;;;2196303;59;1303;-23
2023/04/11 13:23:40;;;;;;;;;;;;;;;;;;2195685;67;1363;-23
2023/04/11 13:26:10;;;;;;;;;;;;;;;;;;2192915;67;1677;-23
2023/04/11 13:28:40;;;;;;;;;;;;;;;;;;2196442;59;1670;-23
2023/04/11 13:31:11;;;;;;;;;;;;;;;;;;2196355;67;1406;-23
2023/04/11 13:33:41;;;;;;;;;;;;;;;;;;2195580;67;1944;-23
2023/04/11 13:36:12;;;;;;;;;;;;;;;;;;2196851;59;1263;-23
2023/04/11 13:38:43;;;;;;;;;;;;;;;;;;2196474;67;1305;-23
2023/04/11 13:41:13;;;;;;;;;;;;;;;;;;2196334;59;1625;-23
2023/04/11 13:43:43;;;;;;;;;;;;;;;;;;2190519;59;2253;-23
2023/04/11 13:46:15;;;;;;;;;;;;;;;;;;2196119;59;1705;-23
2023/04/11 13:48:46;;;;;;;;;;;;;;;;;;2196063;67;1144;-23
2023/04/11 13:51:16;;;;;;;;;;;;;;;;;;2196007;67;1299;-23
2023/04/11 13:53:46;;;;;;;;;;;;;;;;;;2196605;59;1943;-23
2023/04/11 13:56:16;;;;;;;;;;;;;;;;;;2195591;59;1238;-23
2023/04/11 13:58:46;;;;;;;;;;;;;;;;;;2195683;67;1452;-23
2023/04/11 14:01:18;;;;;;;;;;;;;;;;;;2195617;59;1599;-23
2023/04/11 14:03:49;;;;;;;;;;;;;;;;;;2196665;67;1195;-23
2023/04/11 14:06:19;;;;;;;;;;;;;;;;;;2195938;59;1343;-23
2023/04/11 14:08:50;;;;;;;;;;;;;;;;;;2195113;59;1478;-23
2023/04/11 14:11:20;;;;;;;;;;;;;;;;;;2196213;59;1319;-23
2023/04/11 14:13:51;;;;;;;;;;;;;;;;;;2196565;67;1999;-23
2023/04/11 14:16:21;;;;;;;;;;;;;;;;;;2195704;59;1381;-23
2023/04/11 14:18:51;;;;;;;;;;;;;;;;;;2193229;59;1321;-23
2023/04/11 14:21:21;;;;;;;;;;;;;;;;;;2195851;59;1262;-23
2023/04/11 14:23:52;;;;;;;;;;;;;;;;;;2195871;59;1135;-23
2023/04/11 14:26:22;;;;;;;;;;;;;;;;;;2195229;67;1241;-23
2023/04/11 14:28:52;;;;;;;;;;;;;;;;;;2195500;67;1139;-23
2023/04/11 14:31:22;;;;;;;;;;;;;;;;;;2195811;67;1844;-23
2023/04/11 14:33:53;;;;;;;;;;;;;;;;;;2191764;59;2635;-23
2023/04/11 14:36:23;;;;;;;;;;;;;;;;;;2195394;59;2490;-23
2023/04/11 14:38:53;;;;;;;;;;;;;;;;;;2192393;59;2171;-23
2023/04/11 14:41:24;;;;;;;;;;;;;;;;;;2195734;59;1374;-23
2023/04/11 14:43:54;;;;;;;;;;;;;;;;;;2195147;59;2172;-23
2023/04/11 14:46:25;;;;;;;;;;;;;;;;;;2193330;59;2415;-23
2023/04/11 14:48:55;;;;;;;;;;;;;;;;;;2195384;59;2097;-23
2023/04/11 14:51:27;;;;;;;;;;;;;;;;;;2195644;59;1468;-23
2023/04/11 14:53:58;;;;;;;;;;;;;;;;;;2195383;59;2543;-23
2023/04/11 14:56:28;;;;;;;;;;;;;;;;;;2194227;59;2782;-23
2023/04/11 14:58:59;;;;;;;;;;;;;;;;;;2195145;59;2938;-23
2023/04/11 15:01:32;;;;;;;;;;;;;;;;;;2196044;59;1259;-23
2023/04/11 15:04:02;;;;;;;;;;;;;;;;;;2196532;59;2218;-23
2023/04/11 15:06:33;;;;;;;;;;;;;;;;;;2196593;59;1292;-23
2023/04/11 15:09:04;;;;;;;;;;;;;;;;;;2192876;59;2211;-23
2023/04/11 15:11:34;;;;;;;;;;;;;;;;;;2196351;59;2343;-23
2023/04/11 15:14:05;;;;;;;;;;;;;;;;;;2196836;59;1983;-23
2023/04/11 15:16:35;;;;;;;;;;;;;;;;;;2197062;67;1736;-23
2023/04/11 15:19:07;;;;;;;;;;;;;;;;;;2196916;59;1341;-23
2023/04/11 15:21:38;;;;;;;;;;;;;;;;;;2191846;59;1843;-23
2023/04/11 15:24:08;;;;;;;;;;;;;;;;;;2196446;67;1204;-23
2023/04/11 15:26:41;;;;;;;;;;;;;;;;;;2197054;59;1398;-23
2023/04/11 15:29:15;;;;;;;;;;;;;;;;;;2197556;59;1488;-23
2023/04/11 15:31:45;;;;;;;;;;;;;;;;;;2196873;59;1491;-23
2023/04/11 15:34:15;;;;;;;;;;;;;;;;;;2196567;67;1989;-23
2023/04/11 15:36:45;;;;;;;;;;;;;;;;;;2196141;59;2163;-23
2023/04/11 15:39:16;;;;;;;;;;;;;;;;;;2195047;59;2694;-23
2023/04/11 15:41:46;;;;;;;;;;;;;;;;;;2195418;59;1756;-23
2023/04/11 15:44:16;;;;;;;;;;;;;;;;;;2196426;67;2436;-23
2023/04/11 15:46:46;;;;;;;;;;;;;;;;;;2196498;59;2097;-23
2023/04/11 15:49:17;;;;;;;;;;;;;;;;;;2196275;67;1657;-23
2023/04/11 15:51:47;;;;;;;;;;;;;;;;;;2196346;67;1931;-23
2023/04/11 15:54:17;;;;;;;;;;;;;;;;;;2196077;67;2006;-23
2023/04/11 15:56:48;;;;;;;;;;;;;;;;;;2195243;59;2677;-23
2023/04/11 15:59:19;;;;;;;;;;;;;;;;;;2192404;59;3088;-23
2023/04/11 16:01:50;;;;;;;;;;;;;;;;;;2195873;59;1894;-23
2023/04/11 16:04:20;;;;;;;;;;;;;;;;;;2197108;67;1212;-23
2023/04/11 16:06:50;;;;;;;;;;;;;;;;;;2197548;59;1761;-23
2023/04/11 16:09:20;;;;;;;;;;;;;;;;;;2197273;59;1248;-23
2023/04/11 16:11:51;;;;;;;;;;;;;;;;;;2196737;59;2272;-23
2023/04/11 16:14:22;;;;;;;;;;;;;;;;;;2195673;59;2318;-23
2023/04/11 16:16:52;;;;;;;;;;;;;;;;;;2196674;59;1781;-23
2023/04/11 16:19:22;;;;;;;;;;;;;;;;;;2199248;59;2280;-23
2023/04/11 16:21:52;;;;;;;;;;;;;;;;;;2197205;59;1610;-23
2023/04/11 16:24:24;;;;;;;;;;;;;;;;;;2196197;59;2351;-23
2023/04/11 16:26:56;;;;;;;;;;;;;;;;;;2195752;59;2630;-23
2023/04/11 16:29:26;;;;;;;;;;;;;;;;;;2196986;59;2612;-23
2023/04/11 16:31:56;;;;;;;;;;;;;;;;;;2197371;67;1249;-23
2023/04/11 16:34:26;;;;;;;;;;;;;;;;;;2196961;59;2178;-23
2023/04/11 16:36:56;;;;;;;;;;;;;;;;;;2197806;59;1615;-23
2023/04/11 16:39:27;;;;;;;;;;;;;;;;;;2198409;59;2110;-23
2023/04/11 16:41:57;;;;;;;;;;;;;;;;;;2199865;59;2557;-23
2023/04/11 16:44:27;;;;;;;;;;;;;;;;;;2196669;59;2211;-23
2023/04/11 16:46:57;;;;;;;;;;;;;;;;;;2197011;59;3282;-23
2023/04/11 16:49:27;;;;;;;;;;;;;;;;;;2199206;59;2361;-23
2023/04/11 16:51:58;;;;;;;;;;;;;;;;;;2196508;59;2143;-23
2023/04/11 16:54:28;;;;;;;;;;;;;;;;;;2197619;67;2008;-23
2023/04/11 16:56:58;;;;;;;;;;;;;;;;;;2196863;59;2324;-23
2023/04/11 16:59:29;;;;;;;;;;;;;;;;;;2196276;67;2737;-23
2023/04/11 17:01:59;;;;;;;;;;;;;;;;;;2195782;59;3114;-23
2023/04/11 17:04:29;;;;;;;;;;;;;;;;;;2193875;67;1511;-23
2023/04/11 17:07:00;;;;;;;;;;;;;;;;;;2196384;59;2110;-23
2023/04/11 17:09:30;;;;;;;;;;;;;;;;;;2191992;59;1306;-23
2023/04/11 17:12:02;;;;;;;;;;;;;;;;;;2196452;59;2244;-23
2023/04/11 17:14:33;;;;;;;;;;;;;;;;;;2196911;59;1937;-23
2023/04/11 17:17:03;;;;;;;;;;;;;;;;;;2195945;59;2157;-23
2023/04/11 17:19:34;;;;;;;;;;;;;;;;;;2196697;59;2277;-23
2023/04/11 17:22:04;;;;;;;;;;;;;;;;;;2196918;59;2297;-23
2023/04/11 17:24:35;;;;;;;;;;;;;;;;;;2192756;67;1234;-23
2023/04/11 17:27:05;;;;;;;;;;;;;;;;;;2197159;59;2703;-23
2023/04/11 17:29:35;;;;;;;;;;;;;;;;;;2193284;67;1099;-23